Time;durP1;ratioP1;P1;durP2;ratioP2;P2;SDS_P1;SDS_P2;PMS_P1;PMS_P2;Temp;Humidity;BMP_temperature;BMP_pressure;BME280_temperature;BME280_humidity;BME280_pressure;Samples;Min_cycle;Max_cycle;Signal;HPM_P1;HPM_P2
2021/05/09 00:01:53;;;;;;;43.38;30.15;;;;;;;1.96;74.14;98487.91;1884765;74;27601;-73
2021/05/09 00:04:27;;;;;;;44.70;26.90;;;;;;;1.92;74.76;98484.05;1848042;76;22336;-73
2021/05/09 00:07:06;;;;;;;45.20;30.95;;;;;;;1.73;75.37;98483.62;1836486;77;27752;-73
2021/05/09 00:09:42;;;;;;;39.53;23.95;;;;;;;1.83;74.64;98490.66;1890140;76;22355;-73
2021/05/09 00:12:17;;;;;;;39.10;23.15;;;;;;;1.70;74.97;98484.84;1832523;76;22394;-73
2021/05/09 00:14:53;;;;;;;44.48;29.30;;;;;;;1.62;73.59;98481.09;1835007;77;28302;-73
2021/05/09 00:17:27;;;;;;;43.35;26.97;;;;;;;1.66;74.49;98482.81;1830074;76;22291;-73
2021/05/09 00:20:09;;;;;;;47.88;31.05;;;;;;;1.48;74.80;98485.34;1868617;76;27678;-73
2021/05/09 00:22:45;;;;;;;41.18;24.87;;;;;;;1.57;75.14;98484.90;1825461;76;23225;-73
2021/05/09 00:25:20;;;;;;;41.15;25.02;;;;;;;1.39;76.12;98480.75;1848017;76;22451;-73
2021/05/09 00:27:55;;;;;;;37.25;23.15;;;;;;;1.38;75.64;98480.45;1850128;75;22685;-73
2021/05/09 00:30:32;;;;;;;45.75;23.95;;;;;;;1.32;76.91;98480.75;1852381;77;21964;-73
2021/05/09 00:33:08;;;;;;;39.18;25.80;;;;;;;1.32;76.63;98480.75;1840494;76;27708;-73
2021/05/09 00:35:44;;;;;;;42.83;28.85;;;;;;;1.50;74.99;98479.27;1868569;76;27743;-73
2021/05/09 00:38:22;;;;;;;46.50;25.35;;;;;;;1.45;75.99;98481.22;1816693;76;22400;-73
2021/05/09 00:41:00;;;;;;;39.27;24.12;;;;;;;1.33;76.16;98481.06;1890210;76;22433;-73
2021/05/09 00:43:35;;;;;;;43.40;28.63;;;;;;;1.29;75.25;98478.52;1837817;77;27859;-73
2021/05/09 00:46:11;;;;;;;44.23;28.92;;;;;;;1.46;74.49;98477.55;1835004;77;27789;-73
2021/05/09 00:48:47;;;;;;;41.65;28.20;;;;;;;1.49;74.59;98477.12;1868669;76;27741;-73
2021/05/09 00:51:22;;;;;;;39.25;23.25;;;;;;;1.58;74.80;98476.37;1878593;75;22480;-73
2021/05/09 00:53:59;;;;;;;42.88;22.67;;;;;;;1.29;76.16;98471.84;1847520;76;22369;-74
2021/05/09 00:56:35;;;;;;;41.42;26.05;;;;;;;1.26;75.93;98470.09;1862451;76;38567;-73
2021/05/09 00:59:10;;;;;;;36.15;22.98;;;;;;;1.41;75.12;98471.48;1890225;76;22246;-73
2021/05/09 01:01:47;;;;;;;41.13;26.52;;;;;;;1.22;76.93;98463.53;1859644;76;27651;-73
2021/05/09 01:04:24;;;;;;;35.38;20.20;;;;;;;1.41;75.32;98470.67;1890202;76;22388;-73
2021/05/09 01:07:00;;;;;;;35.38;22.90;;;;;;;1.25;76.01;98464.44;1823427;77;27813;-73
2021/05/09 01:09:37;;;;;;;36.33;20.92;;;;;;;1.46;75.71;98465.53;1847523;76;22960;-73
2021/05/09 01:12:13;;;;;;;33.73;18.98;;;;;;;1.33;75.73;98475.72;1833663;76;22554;-73
2021/05/09 01:14:49;;;;;;;31.17;18.50;;;;;;;1.21;77.25;98465.91;1847690;76;22391;-73
2021/05/09 01:17:25;;;;;;;36.55;24.35;;;;;;;1.19;76.41;98466.60;1855800;76;27668;-73
2021/05/09 01:20:15;;;;;;;36.48;19.77;;;;;;;1.28;76.34;98464.86;1875546;75;23009;-73
2021/05/09 01:22:53;;;;;;;33.88;18.65;;;;;;;1.22;76.03;98468.36;1824294;75;22461;-73
2021/05/09 01:25:29;;;;;;;34.53;19.90;;;;;;;1.11;75.29;98461.81;1890248;76;22400;-73
2021/05/09 01:28:06;;;;;;;30.32;17.62;;;;;;;0.94;75.69;98458.42;1852465;77;21988;-73
2021/05/09 01:30:41;;;;;;;36.90;23.43;;;;;;;0.93;75.06;98457.61;1832413;76;27637;-73
2021/05/09 01:33:18;;;;;;;36.68;21.50;;;;;;;1.05;75.96;98456.48;1818208;76;21989;-73
2021/05/09 01:35:55;;;;;;;30.35;18.92;;;;;;;0.96;77.32;98466.55;1847762;76;23136;-73
2021/05/09 01:38:31;;;;;;;35.78;23.10;;;;;;;0.96;75.91;98461.73;1830954;76;27812;-73
2021/05/09 01:41:07;;;;;;;28.52;17.80;;;;;;;1.12;75.98;98455.96;1884852;76;21974;-73
2021/05/09 01:43:42;;;;;;;35.03;16.82;;;;;;;1.04;76.00;98464.19;1848137;76;22423;-73
2021/05/09 01:46:20;;;;;;;24.07;15.95;;;;;;;0.98;76.32;98459.67;1887772;76;22320;-73
2021/05/09 01:48:57;;;;;;;35.13;17.77;;;;;;;0.96;77.46;98451.06;1890559;76;22269;-73
2021/05/09 01:51:34;;;;;;;30.70;20.35;;;;;;;0.95;78.27;98453.42;1863033;76;27676;-73
2021/05/09 01:54:08;;;;;;;27.87;16.70;;;;;;;1.10;77.14;98450.80;1890503;76;23051;-73
2021/05/09 01:56:45;;;;;;;33.20;20.40;;;;;;;1.10;76.55;98445.47;1882987;74;27572;-73
2021/05/09 01:59:19;;;;;;;32.42;17.73;;;;;;;1.20;76.35;98454.89;1848322;76;22311;-73
2021/05/09 02:01:56;;;;;;;31.65;18.00;;;;;;;1.13;76.86;98454.41;1852693;77;22090;-73
2021/05/09 02:04:31;;;;;;;31.52;17.17;;;;;;;1.06;77.41;98454.11;1848740;76;23202;-73
2021/05/09 02:07:06;;;;;;;29.65;18.12;;;;;;;1.00;78.20;98456.27;1835403;76;22332;-73
2021/05/09 02:09:42;;;;;;;33.10;20.93;;;;;;;0.99;78.52;98451.97;1874698;76;27724;-73
2021/05/09 02:12:19;;;;;;;30.82;18.10;;;;;;;1.11;77.04;98448.95;1874270;75;21950;-73
2021/05/09 02:14:56;;;;;;;31.37;15.85;;;;;;;1.01;76.78;98447.23;1853853;77;21945;-73
2021/05/09 02:17:33;;;;;;;27.02;16.05;;;;;;;0.96;76.00;98453.21;1829878;76;22479;-73
2021/05/09 02:20:10;;;;;;;33.70;21.45;;;;;;;0.83;75.62;98452.70;1875978;76;27577;-73
2021/05/09 02:22:47;;;;;;;30.37;19.17;;;;;;;0.87;76.29;98453.13;1828533;76;22537;-73
2021/05/09 02:25:24;;;;;;;31.62;17.42;;;;;;;0.73;77.25;98456.30;1851417;76;22367;-73
2021/05/09 02:28:01;;;;;;;26.27;17.75;;;;;;;0.76;76.27;98453.72;1825480;76;22392;-73
2021/05/09 02:30:36;;;;;;;29.77;18.30;;;;;;;0.68;77.68;98444.08;1851649;76;22630;-72
2021/05/09 02:33:13;;;;;;;36.85;18.17;;;;;;;0.71;77.87;98449.54;1887006;76;22404;-73
2021/05/09 02:35:50;;;;;;;38.17;16.93;;;;;;;0.63;79.43;98445.74;1850425;76;22379;-72
2021/05/09 02:38:27;;;;;;;32.58;20.77;;;;;;;0.69;78.61;98451.59;1844413;76;27703;-73
2021/05/09 02:41:02;;;;;;;30.45;20.17;;;;;;;0.84;77.31;98447.66;1849944;76;22210;-73
2021/05/09 02:43:39;;;;;;;30.65;19.27;;;;;;;0.77;78.48;98447.36;1849611;76;22368;-73
2021/05/09 02:46:14;;;;;;;28.67;15.88;;;;;;;0.72;79.02;98441.84;1848001;76;22313;-73
2021/05/09 02:48:50;;;;;;;30.60;20.12;;;;;;;0.72;77.29;98441.33;1868563;76;27589;-73
2021/05/09 02:51:26;;;;;;;30.80;20.70;;;;;;;0.79;77.74;98442.66;1864481;76;27618;-73
2021/05/09 02:54:01;;;;;;;26.65;16.82;;;;;;;0.96;76.93;98440.38;1848109;76;22396;-73
2021/05/09 02:56:35;;;;;;;25.60;15.35;;;;;;;0.79;76.42;98441.33;1841965;76;22293;-73
2021/05/09 02:59:10;;;;;;;22.93;14.33;;;;;;;0.69;77.15;98435.08;1890129;76;22375;-73
2021/05/09 03:01:46;;;;;;;24.63;17.05;;;;;;;0.69;76.94;98434.26;1859640;76;28236;-73
2021/05/09 03:04:24;;;;;;;26.80;15.40;;;;;;;0.84;77.67;98438.33;1847313;76;22349;-73
2021/05/09 03:07:00;;;;;;;28.07;18.67;;;;;;;0.77;78.93;98438.87;1856487;76;38477;-73
2021/05/09 03:09:35;;;;;;;32.28;16.45;;;;;;;0.94;76.94;98433.08;1890103;75;22364;-73
2021/05/09 03:12:11;;;;;;;32.63;20.65;;;;;;;0.75;78.03;98438.75;1859058;76;27659;-73
2021/05/09 03:14:47;;;;;;;27.40;19.05;;;;;;;0.94;77.14;98441.93;1868537;76;27580;-73
2021/05/09 03:17:23;;;;;;;27.40;18.60;;;;;;;0.99;77.56;98438.63;1856116;76;27728;-73
2021/05/09 03:20:00;;;;;;;25.90;18.12;;;;;;;1.22;77.07;98449.67;1868563;76;27643;-73
2021/05/09 03:22:36;;;;;;;23.32;14.15;;;;;;;1.27;77.30;98445.84;1827549;76;22470;-73
2021/05/09 03:25:11;;;;;;;20.05;13.35;;;;;;;1.21;77.44;98444.55;1848031;76;22393;-73
2021/05/09 03:27:46;;;;;;;26.75;13.90;;;;;;;1.21;77.72;98440.02;1825821;76;22303;-73
2021/05/09 03:30:22;;;;;;;25.05;16.42;;;;;;;1.22;77.74;98447.52;1868559;76;27594;-73
2021/05/09 03:32:57;;;;;;;22.40;13.25;;;;;;;1.31;77.82;98454.27;1864168;76;22384;-73
2021/05/09 03:35:34;;;;;;;29.82;20.35;;;;;;;1.30;76.86;98454.78;1868573;76;27618;-73
2021/05/09 03:38:11;;;;;;;22.65;14.73;;;;;;;1.38;76.92;98453.22;1819492;76;23187;-73
2021/05/09 03:40:48;;;;;;;25.02;13.72;;;;;;;1.38;77.37;98454.56;1847296;75;22589;-73
2021/05/09 03:43:23;;;;;;;21.62;14.23;;;;;;;1.49;76.43;98454.41;1817408;76;22322;-73
2021/05/09 03:45:59;;;;;;;27.48;15.23;;;;;;;1.42;76.58;98457.62;1852346;77;22043;-73
2021/05/09 03:48:34;;;;;;;27.17;16.37;;;;;;;1.31;76.88;98448.41;1925312;74;22426;-73
2021/05/09 03:51:11;;;;;;;29.37;16.57;;;;;;;1.34;76.45;98446.64;1884291;76;21920;-73
2021/05/09 03:53:48;;;;;;;27.50;19.02;;;;;;;1.33;75.96;98461.03;1868576;76;27685;-73
2021/05/09 03:56:24;;;;;;;25.23;15.98;;;;;;;1.39;77.14;98457.53;1844113;76;22347;-73
2021/05/09 03:59:01;;;;;;;27.15;14.33;;;;;;;1.35;77.37;98453.63;1890136;76;22224;-73
2021/05/09 04:01:37;;;;;;;27.95;17.27;;;;;;;1.46;77.09;98448.69;1867037;76;27642;-73
2021/05/09 04:04:12;;;;;;;30.72;15.75;;;;;;;1.75;76.42;98453.48;1852327;77;22561;-73
2021/05/09 04:06:48;;;;;;;29.30;19.65;;;;;;;1.78;76.79;98454.39;1864491;76;28491;-73
2021/05/09 04:09:23;;;;;;;32.28;17.73;;;;;;;2.06;75.98;98452.73;1890110;76;22353;-73
2021/05/09 04:12:00;;;;;;;29.85;14.53;;;;;;;1.99;76.48;98449.27;1872557;76;22005;-73
2021/05/09 04:14:36;;;;;;;23.60;16.35;;;;;;;2.12;75.51;98449.69;1873885;76;27694;-73
2021/05/09 04:17:12;;;;;;;23.92;16.97;;;;;;;2.29;75.24;98454.83;1853508;75;28264;-73
2021/05/09 04:19:49;;;;;;;25.05;14.85;;;;;;;2.49;74.60;98448.02;1884710;76;21917;-73
2021/05/09 04:22:25;;;;;;;25.85;17.00;;;;;;;2.49;74.76;98444.02;1850470;76;27741;-73
2021/05/09 04:25:02;;;;;;;24.95;16.95;;;;;;;2.71;74.36;98449.80;1873875;76;28192;-73
2021/05/09 04:27:38;;;;;;;22.58;16.10;;;;;;;2.90;73.69;98447.45;1847521;76;27710;-73
2021/05/09 04:30:16;;;;;;;25.92;17.00;;;;;;;3.09;73.44;98437.09;1868560;76;27671;-73
2021/05/09 04:33:03;;;;;;;21.57;13.10;;;;;;;3.21;72.64;98439.85;1865159;76;22391;-73
2021/05/09 04:35:44;;;;;;;25.12;17.45;;;;;;;3.19;73.08;98444.63;1868628;76;27627;-73
2021/05/09 04:38:21;;;;;;;27.85;15.95;;;;;;;3.27;73.02;98444.85;1817138;76;22496;-73
2021/05/09 04:40:58;;;;;;;25.62;16.23;;;;;;;3.14;73.48;98457.03;1847405;75;22613;-73
2021/05/09 04:43:34;;;;;;;22.32;13.85;;;;;;;3.11;74.32;98450.27;1843388;76;22349;-73
2021/05/09 04:46:12;;;;;;;24.75;14.07;;;;;;;3.19;73.86;98447.30;1846632;76;22297;-73
2021/05/09 04:48:46;;;;;;;23.20;14.25;;;;;;;3.27;74.03;98442.17;1852276;77;22840;-73
2021/05/09 04:51:24;;;;;;;25.08;14.30;;;;;;;3.34;74.57;98446.42;1889419;76;22368;-73
2021/05/09 04:54:00;;;;;;;22.30;16.62;;;;;;;3.44;73.88;98448.58;1868560;76;28140;-73
2021/05/09 04:56:37;;;;;;;30.12;15.90;;;;;;;3.70;73.20;98444.77;1883447;76;22470;-73
2021/05/09 04:59:13;;;;;;;24.85;16.95;;;;;;;3.68;72.78;98445.52;1873885;76;27765;-73
2021/05/09 05:01:49;;;;;;;24.82;17.65;;;;;;;3.94;72.26;98449.20;1859010;76;27710;-73
2021/05/09 05:04:26;;;;;;;21.57;14.85;;;;;;;4.16;71.34;98453.53;1884725;76;22082;-73
2021/05/09 05:07:02;;;;;;;26.87;17.30;;;;;;;4.20;71.90;98458.75;1887154;74;27754;-73
2021/05/09 05:09:40;;;;;;;21.30;13.30;;;;;;;4.54;71.08;98452.38;1884764;76;21982;-73
2021/05/09 05:12:15;;;;;;;24.65;18.85;;;;;;;4.76;71.22;98442.72;1858087;76;27767;-73
2021/05/09 05:14:52;;;;;;;29.48;23.18;;;;;;;5.17;69.81;98441.52;1850892;77;21953;-73
2021/05/09 05:17:27;;;;;;;56.92;39.13;;;;;;;5.34;70.61;98436.53;1871518;75;22351;-73
2021/05/09 05:20:02;;;;;;;42.40;27.93;;;;;;;5.51;69.36;98444.69;1890162;76;22669;-73
2021/05/09 05:22:38;;;;;;;26.30;17.42;;;;;;;5.64;68.26;98450.34;1826976;76;22585;-73
2021/05/09 05:25:15;;;;;;;30.43;21.42;;;;;;;5.82;68.13;98442.11;1835053;77;38131;-73
2021/05/09 05:27:52;;;;;;;25.32;16.37;;;;;;;6.28;68.12;98436.27;1865376;76;22559;-73
2021/05/09 05:30:29;;;;;;;19.57;13.43;;;;;;;6.46;68.13;98439.28;1890129;76;22446;-73
2021/05/09 05:33:05;;;;;;;21.65;13.70;;;;;;;6.69;66.96;98428.38;1821765;76;22580;-73
2021/05/09 05:35:41;;;;;;;21.87;12.65;;;;;;;7.03;67.16;98427.83;1847567;76;22467;-73
2021/05/09 05:38:18;;;;;;;41.60;23.62;;;;;;;7.31;64.35;98417.44;1843238;76;27713;-73
2021/05/09 05:40:56;;;;;;;14.68;9.65;;;;;;;7.66;61.88;98417.63;1890133;76;22077;-73
2021/05/09 05:43:31;;;;;;;12.07;8.87;;;;;;;7.85;61.44;98424.32;1836542;77;27742;-73
2021/05/09 05:46:07;;;;;;;12.93;7.30;;;;;;;8.20;58.73;98417.17;1875190;75;22464;-73
2021/05/09 05:48:42;;;;;;;11.80;6.83;;;;;;;8.43;60.61;98412.01;1848033;76;22423;-73
2021/05/09 05:51:17;;;;;;;17.10;10.68;;;;;;;8.68;60.34;98403.31;1849971;77;22878;-73
2021/05/09 05:53:56;;;;;;;13.45;7.05;;;;;;;8.93;58.46;98408.64;1890113;76;23001;-73
2021/05/09 05:56:32;;;;;;;15.60;8.93;;;;;;;9.12;59.52;98409.03;1869788;75;22474;-73
2021/05/09 05:59:07;;;;;;;13.32;6.72;;;;;;;9.38;58.01;98407.30;1848059;76;22434;-73
2021/05/09 06:01:42;;;;;;;10.72;6.95;;;;;;;9.61;57.77;98409.05;1840481;76;22328;-73
2021/05/09 06:04:18;;;;;;;16.87;11.35;;;;;;;9.88;56.16;98406.71;1868563;75;27724;-73
2021/05/09 06:06:53;;;;;;;12.43;8.28;;;;;;;10.24;53.79;98411.70;1864498;75;22256;-73
2021/05/09 06:09:30;;;;;;;10.35;6.92;;;;;;;10.38;54.65;98410.12;1852328;77;22122;-73
2021/05/09 06:12:07;;;;;;;13.13;8.60;;;;;;;10.59;54.42;98408.23;1855097;76;27665;-73
2021/05/09 06:14:43;;;;;;;10.00;6.28;;;;;;;10.87;52.08;98400.13;1852332;77;22312;-73
2021/05/09 06:17:20;;;;;;;9.28;6.30;;;;;;;11.04;52.52;98400.37;1851860;76;38032;-73
2021/05/09 06:19:56;;;;;;;11.25;5.95;;;;;;;11.34;51.87;98397.59;1884717;76;21925;-73
2021/05/09 06:22:33;;;;;;;10.50;5.28;;;;;;;11.40;50.33;98390.27;1864678;76;22009;-73
2021/05/09 06:25:10;;;;;;;7.70;5.20;;;;;;;11.60;50.27;98387.47;1875380;75;22489;-73
2021/05/09 06:27:46;;;;;;;12.10;6.90;;;;;;;11.77;50.75;98378.98;1845564;76;27706;-73
2021/05/09 06:30:24;;;;;;;10.68;6.10;;;;;;;12.13;50.86;98381.00;1884731;76;21908;-74
2021/05/09 06:33:00;;;;;;;8.03;4.80;;;;;;;12.26;49.22;98379.03;1822166;76;22356;-73
2021/05/09 06:35:39;;;;;;;8.05;5.00;;;;;;;12.58;47.31;98383.97;1890143;76;22309;-73
2021/05/09 06:38:16;;;;;;;7.10;4.35;;;;;;;12.81;48.17;98376.97;1818246;76;22479;-73
2021/05/09 06:40:51;;;;;;;9.15;4.40;;;;;;;13.04;48.10;98372.69;1848037;75;22027;-74
2021/05/09 06:43:27;;;;;;;11.28;6.78;;;;;;;13.12;46.24;98364.45;1841171;76;27624;-73
2021/05/09 06:46:02;;;;;;;7.80;4.35;;;;;;;13.45;46.73;98355.41;1848051;76;22246;-73
2021/05/09 06:48:37;;;;;;;5.53;3.83;;;;;;;13.72;45.54;98356.17;1848037;76;22402;-73
2021/05/09 06:51:12;;;;;;;8.20;3.87;;;;;;;13.93;45.62;98358.09;1889458;76;22505;-73
2021/05/09 06:53:49;;;;;;;7.25;4.50;;;;;;;14.30;45.10;98357.83;1852326;77;22805;-73
2021/05/09 06:56:28;;;;;;;7.00;3.97;;;;;;;14.89;44.04;98348.99;1870255;76;28175;-73
2021/05/09 06:59:03;;;;;;;7.10;3.90;;;;;;;15.57;42.29;98341.98;1890172;76;22067;-73
2021/05/09 07:01:40;;;;;;;6.97;3.47;;;;;;;15.79;45.03;98342.08;1852361;77;22379;-74
2021/05/09 07:04:17;;;;;;;4.90;3.15;;;;;;;15.89;39.56;98340.23;1847314;76;22290;-73
2021/05/09 07:06:53;;;;;;;5.85;3.47;;;;;;;16.20;40.91;98333.55;1858092;76;28173;-73
2021/05/09 07:09:30;;;;;;;5.30;3.33;;;;;;;16.36;38.20;98327.97;1847309;76;22290;-73
2021/05/09 07:12:08;;;;;;;7.53;4.15;;;;;;;16.28;37.12;98325.41;1833872;76;22393;-74
2021/05/09 07:14:45;;;;;;;5.40;3.65;;;;;;;16.64;38.75;98332.75;1852380;77;22623;-73
2021/05/09 07:17:20;;;;;;;4.60;3.00;;;;;;;17.34;37.88;98328.48;1831708;76;22106;-74
2021/05/09 07:19:58;;;;;;;3.87;3.33;;;;;;;18.12;37.18;98320.51;1890178;76;22257;-73
2021/05/09 07:22:41;;;;;;;3.73;2.60;;;;;;;18.70;34.51;98320.56;1836596;77;27877;-74
2021/05/09 07:25:15;;;;;;;4.22;2.42;;;;;;;19.64;29.95;98318.66;1847632;76;22543;-73
2021/05/09 07:27:51;;;;;;;3.23;2.13;;;;;;;19.83;30.25;98312.75;1811866;77;27861;-73
2021/05/09 07:30:28;;;;;;;3.60;1.32;;;;;;;20.38;30.19;98315.23;1890139;76;22281;-74
2021/05/09 07:33:05;;;;;;;3.60;1.82;;;;;;;20.75;31.34;98318.96;1852373;77;22557;-74
2021/05/09 07:35:42;;;;;;;3.40;1.90;;;;;;;21.26;28.07;98305.77;1884770;76;21851;-74
2021/05/09 07:38:18;;;;;;;3.92;2.00;;;;;;;21.65;28.24;98302.95;1818098;76;22572;-74
2021/05/09 07:40:53;;;;;;;5.22;2.27;;;;;;;22.09;26.77;98310.04;1848081;76;22351;-73
2021/05/09 07:43:30;;;;;;;3.30;1.90;;;;;;;21.82;26.93;98307.98;1831575;76;27839;-74
2021/05/09 07:46:07;;;;;;;5.97;2.22;;;;;;;22.44;23.10;98310.27;1890150;76;22143;-74
2021/05/09 07:48:45;;;;;;;2.17;1.67;;;;;;;21.95;24.15;98313.70;1847134;76;22820;-74
2021/05/09 07:51:21;;;;;;;5.95;1.72;;;;;;;21.76;24.15;98313.50;1844644;76;22346;-74
2021/05/09 07:53:58;;;;;;;2.33;1.62;;;;;;;21.86;25.87;98313.03;1890147;76;22040;-73
2021/05/09 07:56:37;;;;;;;2.15;1.45;;;;;;;22.53;23.77;98311.51;1841211;76;22019;-74
2021/05/09 07:59:14;;;;;;;2.58;1.40;;;;;;;22.60;22.59;98304.81;1847319;76;22648;-74
2021/05/09 08:01:51;;;;;;;2.97;1.80;;;;;;;22.30;23.82;98303.53;1864100;76;27708;-74
2021/05/09 08:04:27;;;;;;;3.27;1.50;;;;;;;23.33;23.27;98306.39;1868751;76;27550;-74
2021/05/09 08:07:03;;;;;;;2.73;1.60;;;;;;;24.27;21.50;98293.53;1836595;77;27693;-73
2021/05/09 08:09:39;;;;;;;2.07;1.67;;;;;;;24.55;21.09;98303.87;1874036;76;27693;-74
2021/05/09 08:12:16;;;;;;;4.10;1.90;;;;;;;25.44;20.17;98296.41;1858195;76;37921;-74
2021/05/09 08:14:52;;;;;;;2.90;1.53;;;;;;;25.45;21.41;98295.23;1868718;76;38389;-74
2021/05/09 08:17:29;;;;;;;2.47;1.85;;;;;;;25.79;21.73;98296.19;1828962;76;22583;-74
2021/05/09 08:20:07;;;;;;;2.80;1.50;;;;;;;25.66;20.94;98287.84;1868713;76;27580;-74
2021/05/09 08:22:45;;;;;;;1.98;1.40;;;;;;;26.62;20.00;98285.83;1825785;76;22733;-74
2021/05/09 08:25:22;;;;;;;5.53;2.02;;;;;;;26.56;19.67;98286.54;1847552;76;22636;-74
2021/05/09 08:27:59;;;;;;;2.25;1.52;;;;;;;26.92;18.19;98287.16;1849429;75;22594;-74
2021/05/09 08:30:35;;;;;;;4.20;1.70;;;;;;;26.30;18.61;98277.06;1874036;76;27533;-74
2021/05/09 08:33:11;;;;;;;2.03;1.50;;;;;;;26.39;19.36;98273.44;1839813;76;27752;-74
2021/05/09 08:35:47;;;;;;;3.70;1.77;;;;;;;27.23;17.74;98276.15;1874014;76;27577;-74
2021/05/09 08:38:24;;;;;;;3.83;1.62;;;;;;;28.33;17.46;98267.79;1843403;75;22487;-74
2021/05/09 08:41:01;;;;;;;4.12;1.55;;;;;;;28.09;16.60;98265.65;1890195;76;22521;-74
2021/05/09 08:43:38;;;;;;;2.58;1.70;;;;;;;27.98;15.57;98264.80;1812354;77;22717;-74
2021/05/09 08:46:14;;;;;;;3.90;1.40;;;;;;;27.58;16.93;98265.70;1867411;76;28100;-74
2021/05/09 08:48:51;;;;;;;1.70;1.20;;;;;;;27.85;15.41;98261.53;1836547;77;27781;-74
2021/05/09 08:51:28;;;;;;;6.17;1.30;;;;;;;28.53;15.26;98255.71;1843376;76;22583;-74
2021/05/09 08:54:06;;;;;;;1.47;1.20;;;;;;;28.19;15.83;98259.92;1847337;76;22123;-74
2021/05/09 08:56:43;;;;;;;9.98;2.40;;;;;;;28.53;16.86;98248.75;1839973;76;22066;-74
2021/05/09 08:59:17;;;;;;;2.98;1.70;;;;;;;28.97;15.02;98253.85;1890148;76;22538;-74
2021/05/09 09:01:52;;;;;;;3.70;3.30;;;;;;;29.11;14.83;98253.28;1838174;75;23137;-74
2021/05/09 09:04:46;;;;;;;3.15;1.42;;;;;;;28.37;15.11;98248.29;1847319;76;22037;-74
2021/05/09 09:07:24;;;;;;;2.10;1.90;;;;;;;28.33;15.80;98256.64;1857933;75;22321;-74
2021/05/09 09:09:59;;;;;;;2.95;1.10;;;;;;;28.97;16.28;98257.47;1848074;76;22554;-74
2021/05/09 09:12:38;;;;;;;2.27;1.23;;;;;;;30.01;14.45;98247.05;1848499;76;28282;-74
2021/05/09 09:15:15;;;;;;;2.30;1.67;;;;;;;30.43;13.48;98250.33;1847453;76;21982;-74
2021/05/09 09:17:51;;;;;;;2.20;1.57;;;;;;;30.63;13.27;98245.02;1844644;76;28207;-74
2021/05/09 09:20:28;;;;;;;3.30;1.30;;;;;;;30.75;13.26;98243.78;1890183;76;22564;-74
2021/05/09 09:23:05;;;;;;;3.85;1.50;;;;;;;30.87;13.92;98246.12;1852357;77;22219;-74
2021/05/09 09:25:42;;;;;;;1.80;1.13;;;;;;;31.41;13.56;98245.12;1868758;76;27533;-74
2021/05/09 09:28:20;;;;;;;2.00;0.80;;;;;;;32.37;11.44;98248.98;1817867;76;22068;-74
2021/05/09 09:30:56;;;;;;;2.50;1.17;;;;;;;31.45;12.42;98241.71;1847617;76;22570;-74
2021/05/09 09:33:31;;;;;;;2.40;0.98;;;;;;;31.40;12.62;98244.94;1852334;77;22439;-74
2021/05/09 09:36:13;;;;;;;1.40;0.90;;;;;;;31.39;12.41;98240.55;1868720;76;28096;-74
2021/05/09 09:38:49;;;;;;;4.25;1.22;;;;;;;31.53;12.13;98242.41;1847651;76;22550;-74
2021/05/09 09:41:26;;;;;;;1.57;1.03;;;;;;;31.97;12.60;98248.63;1870081;76;27530;-74
2021/05/09 09:44:08;;;;;;;1.00;0.72;;;;;;;32.83;11.71;98248.37;1848045;76;22107;-74
2021/05/09 09:49:36;;;;;;;1.55;1.15;;;;;;;33.07;12.46;98240.80;1847690;76;22344;-74
2021/05/09 09:52:12;;;;;;;1.55;1.27;;;;;;;33.62;11.58;98241.72;1833283;76;22914;-74
2021/05/09 09:54:49;;;;;;;2.30;1.50;;;;;;;33.47;10.93;98238.19;1847310;76;22244;-74
2021/05/09 09:57:30;;;;;;;5.17;2.67;;;;;;;32.52;10.89;98238.56;1829512;76;22379;-74
2021/05/09 10:00:14;;;;;;;4.28;2.80;;;;;;;32.60;10.98;98237.06;1847435;76;22231;-74
2021/05/09 10:02:50;;;;;;;3.45;1.82;;;;;;;32.26;12.49;98230.86;1824424;76;22609;-74
2021/05/09 10:05:26;;;;;;;2.02;0.90;;;;;;;33.06;11.83;98228.78;1874034;76;28198;-74
2021/05/09 10:08:04;;;;;;;1.75;0.90;;;;;;;34.12;10.45;98225.97;1852397;77;22452;-74
2021/05/09 10:10:40;;;;;;;1.75;1.20;;;;;;;34.49;10.80;98231.23;1890156;76;21925;-74
2021/05/09 10:13:18;;;;;;;1.55;1.00;;;;;;;34.49;10.01;98223.41;1838661;76;27651;-74
2021/05/09 10:15:54;;;;;;;1.67;1.00;;;;;;;35.22;9.58;98219.33;1875268;75;22218;-74
2021/05/09 10:18:31;;;;;;;3.72;1.55;;;;;;;34.71;10.48;98218.11;1831195;76;48956;-74
2021/05/09 10:21:06;;;;;;;1.10;0.78;;;;;;;35.92;10.03;98221.40;1848124;76;22240;-74
2021/05/09 10:24:10;;;;;;;3.80;0.80;;;;;;;36.08;9.53;98216.50;1766191;79;27691;-74
2021/05/09 10:26:58;;;;;;;13.13;2.80;;;;;;;36.73;9.43;98204.10;1866540;75;22470;-74
2021/05/09 10:29:41;;;;;;;5.83;1.30;;;;;;;36.42;9.11;98204.66;1832491;76;27623;-74
2021/05/09 10:32:26;;;;;;;1.00;0.85;;;;;;;37.08;9.12;98212.08;1859239;75;22412;-74
2021/05/09 10:35:05;;;;;;;1.60;0.90;;;;;;;37.04;8.88;98202.95;1836635;77;27820;-74
2021/05/09 10:37:50;;;;;;;1.98;0.90;;;;;;;36.87;8.51;98190.20;1853510;75;22365;-74
2021/05/09 10:40:35;;;;;;;1.95;1.27;;;;;;;37.16;8.98;98188.01;1847666;76;23090;-74
2021/05/09 10:43:18;;;;;;;2.75;1.65;;;;;;;36.29;9.39;98191.10;1819553;76;22296;-74
2021/05/09 10:45:55;;;;;;;0.90;0.60;;;;;;;35.97;9.70;98200.48;1847649;76;22456;-74
2021/05/09 10:48:32;;;;;;;0.78;0.53;;;;;;;36.01;9.47;98191.32;1890097;76;22779;-74
2021/05/09 10:51:23;;;;;;;0.82;0.62;;;;;;;34.20;10.25;98182.43;1890045;76;22349;-74
2021/05/09 10:54:21;;;;;;;1.32;0.80;;;;;;;36.05;9.06;98182.13;1847674;76;22305;-74
2021/05/09 10:56:57;;;;;;;2.60;1.05;;;;;;;35.46;10.01;98184.73;1836634;76;22373;-74
2021/05/09 10:59:57;;;;;;;1.30;0.80;;;;;;;35.49;10.42;98176.82;1847331;76;22393;-74
2021/05/09 11:02:34;;;;;;;1.65;0.75;;;;;;;36.98;10.28;98179.34;1869893;76;22246;-74
2021/05/09 11:05:11;;;;;;;2.10;0.93;;;;;;;37.02;9.20;98170.77;1847607;76;22423;-74
2021/05/09 11:07:47;;;;;;;2.47;1.10;;;;;;;37.53;9.18;98168.64;1836616;77;28298;-74
2021/05/09 11:10:38;;;;;;;1.87;1.10;;;;;;;38.82;7.53;98168.27;1847464;76;22275;-74
2021/05/09 11:13:14;;;;;;;3.30;0.88;;;;;;;38.12;8.20;98171.17;1819069;76;22031;-74
2021/05/09 11:16:19;;;;;;;3.22;1.52;;;;;;;37.74;8.49;98170.69;1847351;76;22385;-74
2021/05/09 11:19:04;;;;;;;1.47;0.72;;;;;;;37.10;8.98;98175.73;1847490;76;22271;-74
2021/05/09 11:21:49;;;;;;;0.82;0.62;;;;;;;36.89;9.45;98170.77;1861141;76;28197;-74
2021/05/09 11:24:28;;;;;;;1.90;0.80;;;;;;;38.45;8.49;98176.40;1890200;76;22141;-74
2021/05/09 11:27:11;;;;;;;1.55;0.82;;;;;;;38.73;8.95;98172.48;1835068;76;22454;-74
2021/05/09 11:29:51;;;;;;;5.12;0.80;;;;;;;39.38;8.22;98175.66;1847649;76;22162;-74
2021/05/09 11:32:29;;;;;;;2.35;0.70;;;;;;;39.75;7.80;98178.57;1829690;76;21868;-74
2021/05/09 11:35:09;;;;;;;4.95;0.93;;;;;;;38.08;7.79;98164.22;1852365;77;22490;-74
2021/05/09 11:37:45;;;;;;;1.00;0.62;;;;;;;38.57;9.07;98164.21;1825687;76;23117;-74
2021/05/09 11:40:22;;;;;;;1.65;0.70;;;;;;;38.18;8.57;98168.52;1847319;76;22241;-74
2021/05/09 11:42:57;;;;;;;3.10;0.85;;;;;;;39.02;9.20;98168.48;1864353;76;22116;-74
2021/05/09 11:45:32;;;;;;;4.05;1.77;;;;;;;39.74;8.45;98169.91;1852384;77;22585;-74
2021/05/09 11:48:09;;;;;;;0.80;0.57;;;;;;;38.79;8.47;98165.57;1861533;76;22236;-74
2021/05/09 11:50:53;;;;;;;1.40;0.57;;;;;;;38.87;9.03;98159.78;1875438;75;22273;-74
2021/05/09 11:53:29;;;;;;;1.37;0.62;;;;;;;39.31;8.41;98160.41;1844861;76;22411;-74
2021/05/09 11:56:07;;;;;;;0.80;0.60;;;;;;;39.18;8.20;98154.86;1847162;76;22575;-74
2021/05/09 11:58:45;;;;;;;0.40;0.40;;;;;;;37.79;8.77;98149.57;1778704;79;21980;-74
2021/05/09 12:01:34;;;;;;;0.40;0.40;;;;;;;39.13;8.46;98149.02;1844399;76;22293;-74
2021/05/09 12:04:14;;;;;;;0.85;0.65;;;;;;;38.38;8.13;98145.73;1847533;76;22152;-74
2021/05/09 12:06:50;;;;;;;1.40;0.90;;;;;;;38.00;8.54;98145.94;1838152;75;22171;-74
2021/05/09 12:09:28;;;;;;;1.72;1.07;;;;;;;37.15;9.01;98148.30;1868767;76;27550;-74
2021/05/09 12:12:06;;;;;;;3.17;1.25;;;;;;;37.60;8.76;98144.34;1834500;76;22330;-74
2021/05/09 12:14:44;;;;;;;2.65;1.00;;;;;;;37.31;9.22;98150.22;1847300;76;22585;-74
2021/05/09 12:17:22;;;;;;;2.10;1.25;;;;;;;36.94;9.60;98141.36;1832306;76;22076;-73
2021/05/09 12:19:58;;;;;;;1.62;1.05;;;;;;;37.90;8.68;98147.13;1847606;76;22365;-74
2021/05/09 12:22:39;;;;;;;0.75;0.68;;;;;;;37.05;9.30;98140.98;1827806;76;22013;-74